<?xml version="1.0" encoding="UTF-8" standalone="no" ?>
<gpx xmlns="http://www.topografix.com/GPX/1/1" xmlns:xsi="http://www.w3.org/2001/XMLSchema-instance" xsi:schemaLocation="http://www.topografix.com/GPX/1/1 http://www.topografix.com/GPX/1/1/gpx.xsd" version="1.1" creator="VisuGPX - https://www.visugpx.com">
  <metadata>
    <name>Du pont d'Aygue Blanche à la Montagne de l'Estrop</name>
  </metadata>
  <wpt lat="44.11489" lon="6.92229">
    <ele>1253</ele>
    <name><![CDATA[Pont d'Aygue Blanche]]></name>
  </wpt>
  <wpt lat="44.11815" lon="6.93127">
    <ele>1364</ele>
    <name><![CDATA[quitter la piste à droite]]></name>
  </wpt>
  <wpt lat="44.11842" lon="6.93156">
    <ele>1377</ele>
    <name><![CDATA[Sentier sur la droite]]></name>
  </wpt>
  <wpt lat="44.12667" lon="6.93088">
    <ele>1719</ele>
    <name><![CDATA[b90 septenne]]></name>
  </wpt>
  <wpt lat="44.12712" lon="6.93036">
    <ele>1736</ele>
    <name><![CDATA[Balise 90 - Septenne]]></name>
  </wpt>
  <wpt lat="44.12987" lon="6.92599">
    <ele>1782</ele>
    <name><![CDATA[source]]></name>
  </wpt>
  <wpt lat="44.13258" lon="6.92522">
    <ele>1797</ele>
    <name><![CDATA[Balise 89 - Direction Col de Crousette]]></name>
  </wpt>
  <wpt lat="44.13489" lon="6.92722">
    <ele>1864</ele>
    <name><![CDATA[prise d'eau, abreuvoir]]></name>
  </wpt>
  <wpt lat="44.13899" lon="6.93228">
    <ele>2068</ele>
    <name><![CDATA[Crête d'Ajalet]]></name>
  </wpt>
  <wpt lat="44.13981" lon="6.94037">
    <ele>2232</ele>
    <name><![CDATA[Balise 92 - Montagne de l'Estrop]]></name>
  </wpt>
  <trk>
    <name><![CDATA[Du pont d'Aygue Blanche à la Montagne de l'Estrop]]></name>
    <trkseg>
      <trkpt lat="44.11489" lon="6.92229">
        <ele>1253</ele>
        <time>2019-07-05T16:30:06+02:00</time>
      </trkpt>
      <trkpt lat="44.11472" lon="6.92284">
        <ele>1259</ele>
        <time>2019-07-05T16:31:50+02:00</time>
      </trkpt>
      <trkpt lat="44.11451" lon="6.92336">
        <ele>1266</ele>
        <time>2019-07-05T16:32:44+02:00</time>
      </trkpt>
      <trkpt lat="44.11416" lon="6.92376">
        <ele>1267</ele>
        <time>2019-07-05T16:33:32+02:00</time>
      </trkpt>
      <trkpt lat="44.11404" lon="6.92466">
        <ele>1285</ele>
        <time>2019-07-05T16:34:57+02:00</time>
      </trkpt>
      <trkpt lat="44.11393" lon="6.92528">
        <ele>1284</ele>
        <time>2019-07-05T16:36:32+02:00</time>
      </trkpt>
      <trkpt lat="44.11392" lon="6.92593">
        <ele>1288</ele>
        <time>2019-07-05T16:37:14+02:00</time>
      </trkpt>
      <trkpt lat="44.11376" lon="6.92653">
        <ele>1296</ele>
        <time>2019-07-05T16:39:24+02:00</time>
      </trkpt>
      <trkpt lat="44.11398" lon="6.92734">
        <ele>1305</ele>
        <time>2019-07-05T16:40:59+02:00</time>
      </trkpt>
      <trkpt lat="44.11421" lon="6.92789">
        <ele>1305</ele>
        <time>2019-07-05T16:41:52+02:00</time>
      </trkpt>
      <trkpt lat="44.11451" lon="6.92836">
        <ele>1306</ele>
        <time>2019-07-05T16:42:43+02:00</time>
      </trkpt>
      <trkpt lat="44.11488" lon="6.92872">
        <ele>1309</ele>
        <time>2019-07-05T16:44:22+02:00</time>
      </trkpt>
      <trkpt lat="44.11527" lon="6.92948">
        <ele>1317</ele>
        <time>2019-07-05T16:45:43+02:00</time>
      </trkpt>
      <trkpt lat="44.11553" lon="6.93001">
        <ele>1322</ele>
        <time>2019-07-05T16:46:35+02:00</time>
      </trkpt>
      <trkpt lat="44.11592" lon="6.93035">
        <ele>1331</ele>
        <time>2019-07-05T16:47:29+02:00</time>
      </trkpt>
      <trkpt lat="44.11622" lon="6.93082">
        <ele>1331</ele>
        <time>2019-07-05T16:49:08+02:00</time>
      </trkpt>
      <trkpt lat="44.11664" lon="6.93105">
        <ele>1334</ele>
        <time>2019-07-05T16:50:18+02:00</time>
      </trkpt>
      <trkpt lat="44.11699" lon="6.93145">
        <ele>1341</ele>
        <time>2019-07-05T16:52:11+02:00</time>
      </trkpt>
      <trkpt lat="44.11735" lon="6.93184">
        <ele>1344</ele>
        <time>2019-07-05T16:52:52+02:00</time>
      </trkpt>
      <trkpt lat="44.11757" lon="6.93216">
        <ele>1348</ele>
        <time>2021-10-27T10:49:29+02:00</time>
      </trkpt>
      <trkpt lat="44.1177" lon="6.93274">
        <ele>1351</ele>
        <time>2019-07-05T16:53:39+02:00</time>
      </trkpt>
      <trkpt lat="44.11769" lon="6.93196">
        <ele>1352</ele>
        <time>2021-10-27T10:49:39+02:00</time>
      </trkpt>
      <trkpt lat="44.11801" lon="6.9316">
        <ele>1359</ele>
        <time>2021-10-27T10:49:44+02:00</time>
      </trkpt>
      <trkpt lat="44.11815" lon="6.93127">
        <ele>1364</ele>
        <time>2019-07-05T16:56:43+02:00</time>
      </trkpt>
      <trkpt lat="44.11828" lon="6.93142">
        <ele>1367</ele>
        <time>2021-10-27T10:49:54+02:00</time>
      </trkpt>
      <trkpt lat="44.11819" lon="6.93181">
        <ele>1372</ele>
        <time>2021-10-27T10:49:59+02:00</time>
      </trkpt>
      <trkpt lat="44.11842" lon="6.93156">
        <ele>1377</ele>
        <time>2021-10-27T10:50:04+02:00</time>
      </trkpt>
      <trkpt lat="44.11823" lon="6.93209">
        <ele>1383</ele>
        <time>2021-10-27T10:50:09+02:00</time>
      </trkpt>
      <trkpt lat="44.11837" lon="6.93237">
        <ele>1391</ele>
        <time>2019-07-05T17:04:20+02:00</time>
      </trkpt>
      <trkpt lat="44.11829" lon="6.93301">
        <ele>1393</ele>
        <time>2019-07-05T17:05:16+02:00</time>
      </trkpt>
      <trkpt lat="44.11841" lon="6.93367">
        <ele>1394</ele>
        <time>2019-07-05T17:06:57+02:00</time>
      </trkpt>
      <trkpt lat="44.11868" lon="6.93397">
        <ele>1403</ele>
        <time>2021-10-27T10:50:29+02:00</time>
      </trkpt>
      <trkpt lat="44.11864" lon="6.93324">
        <ele>1420</ele>
        <time>2021-10-27T10:50:34+02:00</time>
      </trkpt>
      <trkpt lat="44.11884" lon="6.93323">
        <ele>1430</ele>
        <time>2019-07-05T17:11:28+02:00</time>
      </trkpt>
      <trkpt lat="44.11901" lon="6.93329">
        <ele>1439</ele>
        <time>2021-10-27T10:50:44+02:00</time>
      </trkpt>
      <trkpt lat="44.11925" lon="6.93292">
        <ele>1439</ele>
        <time>2019-07-05T17:13:40+02:00</time>
      </trkpt>
      <trkpt lat="44.11961" lon="6.93254">
        <ele>1449</ele>
        <time>2019-07-05T17:15:13+02:00</time>
      </trkpt>
      <trkpt lat="44.11956" lon="6.93316">
        <ele>1461</ele>
        <time>2019-07-05T17:18:09+02:00</time>
      </trkpt>
      <trkpt lat="44.11975" lon="6.93342">
        <ele>1477</ele>
        <time>2021-10-27T10:51:04+02:00</time>
      </trkpt>
      <trkpt lat="44.11994" lon="6.93333">
        <ele>1488</ele>
        <time>2021-10-27T10:51:09+02:00</time>
      </trkpt>
      <trkpt lat="44.12011" lon="6.93356">
        <ele>1498</ele>
        <time>2019-07-05T17:24:38+02:00</time>
      </trkpt>
      <trkpt lat="44.12042" lon="6.9345">
        <ele>1518</ele>
        <time>2019-07-05T17:26:56+02:00</time>
      </trkpt>
      <trkpt lat="44.12075" lon="6.93357">
        <ele>1539</ele>
        <time>2019-07-05T17:30:33+02:00</time>
      </trkpt>
      <trkpt lat="44.12095" lon="6.93292">
        <ele>1551</ele>
        <time>2019-07-05T17:32:11+02:00</time>
      </trkpt>
      <trkpt lat="44.12114" lon="6.9326">
        <ele>1559</ele>
        <time>2019-07-05T17:33:18+02:00</time>
      </trkpt>
      <trkpt lat="44.12179" lon="6.93269">
        <ele>1582</ele>
        <time>2019-07-05T17:36:03+02:00</time>
      </trkpt>
      <trkpt lat="44.12183" lon="6.93296">
        <ele>1593</ele>
        <time>2021-10-27T10:51:44+02:00</time>
      </trkpt>
      <trkpt lat="44.12203" lon="6.93305">
        <ele>1604</ele>
        <time>2021-10-27T10:51:49+02:00</time>
      </trkpt>
      <trkpt lat="44.1218" lon="6.93356">
        <ele>1609</ele>
        <time>2019-07-05T17:40:40+02:00</time>
      </trkpt>
      <trkpt lat="44.12248" lon="6.93349">
        <ele>1638</ele>
        <time>2019-07-05T17:46:18+02:00</time>
      </trkpt>
      <trkpt lat="44.12308" lon="6.93315">
        <ele>1644</ele>
        <time>2019-07-05T17:48:27+02:00</time>
      </trkpt>
      <trkpt lat="44.12336" lon="6.9332">
        <ele>1652</ele>
        <time>2021-10-27T10:52:09+02:00</time>
      </trkpt>
      <trkpt lat="44.12373" lon="6.93302">
        <ele>1653</ele>
        <time>2019-07-05T17:50:16+02:00</time>
      </trkpt>
      <trkpt lat="44.12419" lon="6.93296">
        <ele>1661</ele>
        <time>2019-07-05T17:50:55+02:00</time>
      </trkpt>
      <trkpt lat="44.12451" lon="6.93286">
        <ele>1662</ele>
        <time>2021-10-27T10:52:24+02:00</time>
      </trkpt>
      <trkpt lat="44.12485" lon="6.93293">
        <ele>1667</ele>
        <time>2019-07-05T17:52:29+02:00</time>
      </trkpt>
      <trkpt lat="44.1253" lon="6.93304">
        <ele>1672</ele>
        <time>2019-07-05T17:53:23+02:00</time>
      </trkpt>
      <trkpt lat="44.12566" lon="6.93302">
        <ele>1675</ele>
        <time>2021-10-27T10:52:39+02:00</time>
      </trkpt>
      <trkpt lat="44.12564" lon="6.93246">
        <ele>1679</ele>
        <time>2019-07-05T17:54:57+02:00</time>
      </trkpt>
      <trkpt lat="44.12557" lon="6.93199">
        <ele>1685</ele>
        <time>2021-10-27T10:52:49+02:00</time>
      </trkpt>
      <trkpt lat="44.12603" lon="6.93177">
        <ele>1706</ele>
        <time>2019-07-05T17:58:43+02:00</time>
      </trkpt>
      <trkpt lat="44.1263" lon="6.93127">
        <ele>1709</ele>
        <time>2019-07-05T17:59:59+02:00</time>
      </trkpt>
      <trkpt lat="44.12667" lon="6.93088">
        <ele>1719</ele>
        <time>2019-07-05T18:00:55+02:00</time>
      </trkpt>
      <trkpt lat="44.12712" lon="6.93036">
        <ele>1736</ele>
        <time>2019-07-05T18:06:22+02:00</time>
      </trkpt>
      <trkpt lat="44.12731" lon="6.92979">
        <ele>1739</ele>
        <time>2019-07-05T18:07:09+02:00</time>
      </trkpt>
      <trkpt lat="44.12695" lon="6.92939">
        <ele>1736</ele>
        <time>2019-07-05T18:07:55+02:00</time>
      </trkpt>
      <trkpt lat="44.12696" lon="6.9291">
        <ele>1739</ele>
        <time>2021-10-27T10:53:24+02:00</time>
      </trkpt>
      <trkpt lat="44.12712" lon="6.92893">
        <ele>1743</ele>
        <time>2021-10-27T10:53:29+02:00</time>
      </trkpt>
      <trkpt lat="44.12713" lon="6.92857">
        <ele>1745</ele>
        <time>2019-07-05T18:09:06+02:00</time>
      </trkpt>
      <trkpt lat="44.12739" lon="6.92803">
        <ele>1750</ele>
        <time>2019-07-05T18:09:54+02:00</time>
      </trkpt>
      <trkpt lat="44.12765" lon="6.92751">
        <ele>1754</ele>
        <time>2019-07-05T18:10:44+02:00</time>
      </trkpt>
      <trkpt lat="44.12805" lon="6.92718">
        <ele>1757</ele>
        <time>2019-07-05T18:11:33+02:00</time>
      </trkpt>
      <trkpt lat="44.12832" lon="6.92704">
        <ele>1761</ele>
        <time>2021-10-27T10:53:54+02:00</time>
      </trkpt>
      <trkpt lat="44.12878" lon="6.927">
        <ele>1769</ele>
        <time>2019-07-05T18:13:38+02:00</time>
      </trkpt>
      <trkpt lat="44.12881" lon="6.92671">
        <ele>1771</ele>
        <time>2021-10-27T10:54:04+02:00</time>
      </trkpt>
      <trkpt lat="44.12894" lon="6.92645">
        <ele>1775</ele>
        <time>2019-07-05T18:19:05+02:00</time>
      </trkpt>
      <trkpt lat="44.12932" lon="6.92612">
        <ele>1779</ele>
        <time>2019-07-05T18:19:52+02:00</time>
      </trkpt>
      <trkpt lat="44.12987" lon="6.92599">
        <ele>1782</ele>
        <time>2019-07-05T18:21:25+02:00</time>
      </trkpt>
      <trkpt lat="44.1302" lon="6.92554">
        <ele>1781</ele>
        <time>2019-07-05T18:28:33+02:00</time>
      </trkpt>
      <trkpt lat="44.13063" lon="6.92526">
        <ele>1787</ele>
        <time>2019-07-05T18:29:32+02:00</time>
      </trkpt>
      <trkpt lat="44.13105" lon="6.92503">
        <ele>1791</ele>
        <time>2019-07-05T18:30:22+02:00</time>
      </trkpt>
      <trkpt lat="44.13136" lon="6.92505">
        <ele>1797</ele>
        <time>2021-10-27T10:54:39+02:00</time>
      </trkpt>
      <trkpt lat="44.13171" lon="6.92527">
        <ele>1802</ele>
        <time>2019-07-05T18:31:22+02:00</time>
      </trkpt>
      <trkpt lat="44.13215" lon="6.92542">
        <ele>1802</ele>
        <time>2019-07-05T18:32:00+02:00</time>
      </trkpt>
      <trkpt lat="44.13235" lon="6.9254">
        <ele>1801</ele>
        <time>2021-10-27T10:54:54+02:00</time>
      </trkpt>
      <trkpt lat="44.13258" lon="6.92522">
        <ele>1797</ele>
        <time>2019-07-05T18:32:36+02:00</time>
      </trkpt>
      <trkpt lat="44.13291" lon="6.92566">
        <ele>1818</ele>
        <time>2019-07-05T18:36:05+02:00</time>
      </trkpt>
      <trkpt lat="44.13333" lon="6.92591">
        <ele>1828</ele>
        <time>2019-07-05T18:37:12+02:00</time>
      </trkpt>
      <trkpt lat="44.13374" lon="6.92618">
        <ele>1838</ele>
        <time>2019-07-05T18:39:26+02:00</time>
      </trkpt>
      <trkpt lat="44.13414" lon="6.92648">
        <ele>1848</ele>
        <time>2019-07-05T18:41:50+02:00</time>
      </trkpt>
      <trkpt lat="44.13455" lon="6.9268">
        <ele>1857</ele>
        <time>2019-07-05T18:43:05+02:00</time>
      </trkpt>
      <trkpt lat="44.13489" lon="6.92722">
        <ele>1864</ele>
        <time>2019-07-05T18:44:02+02:00</time>
      </trkpt>
      <trkpt lat="44.13501" lon="6.92747">
        <ele>1869</ele>
        <time>2021-10-27T10:55:34+02:00</time>
      </trkpt>
      <trkpt lat="44.13479" lon="6.9276">
        <ele>1877</ele>
        <time>2021-10-27T10:55:39+02:00</time>
      </trkpt>
      <trkpt lat="44.13444" lon="6.92762">
        <ele>1886</ele>
        <time>2019-07-05T18:48:42+02:00</time>
      </trkpt>
      <trkpt lat="44.13408" lon="6.92766">
        <ele>1892</ele>
        <time>2021-10-27T10:55:49+02:00</time>
      </trkpt>
      <trkpt lat="44.13453" lon="6.9284">
        <ele>1906</ele>
        <time>2019-07-05T18:51:44+02:00</time>
      </trkpt>
      <trkpt lat="44.13479" lon="6.92891">
        <ele>1915</ele>
        <time>2019-07-05T18:52:57+02:00</time>
      </trkpt>
      <trkpt lat="44.13509" lon="6.92938">
        <ele>1923</ele>
        <time>2019-07-05T18:58:21+02:00</time>
      </trkpt>
      <trkpt lat="44.13552" lon="6.92957">
        <ele>1930</ele>
        <time>2019-07-05T18:59:52+02:00</time>
      </trkpt>
      <trkpt lat="44.13597" lon="6.92967">
        <ele>1940</ele>
        <time>2019-07-05T19:02:03+02:00</time>
      </trkpt>
      <trkpt lat="44.13643" lon="6.92967">
        <ele>1952</ele>
        <time>2019-07-05T19:03:27+02:00</time>
      </trkpt>
      <trkpt lat="44.1371" lon="6.92984">
        <ele>1967</ele>
        <time>2019-07-05T19:08:31+02:00</time>
      </trkpt>
      <trkpt lat="44.13754" lon="6.93003">
        <ele>1979</ele>
        <time>2019-07-05T19:10:23+02:00</time>
      </trkpt>
      <trkpt lat="44.13797" lon="6.93031">
        <ele>1986</ele>
        <time>2019-07-05T19:13:38+02:00</time>
      </trkpt>
      <trkpt lat="44.13842" lon="6.93068">
        <ele>1998</ele>
        <time>2019-07-05T19:16:03+02:00</time>
      </trkpt>
      <trkpt lat="44.13877" lon="6.93108">
        <ele>2015</ele>
        <time>2019-07-05T19:18:40+02:00</time>
      </trkpt>
      <trkpt lat="44.13905" lon="6.93175">
        <ele>2052</ele>
        <time>2019-07-05T19:26:54+02:00</time>
      </trkpt>
      <trkpt lat="44.13899" lon="6.93228">
        <ele>2068</ele>
        <time>2019-07-05T19:30:22+02:00</time>
      </trkpt>
      <trkpt lat="44.13868" lon="6.93266">
        <ele>2076</ele>
        <time>2019-07-05T19:31:45+02:00</time>
      </trkpt>
      <trkpt lat="44.13827" lon="6.93296">
        <ele>2077</ele>
        <time>2019-07-05T19:34:13+02:00</time>
      </trkpt>
      <trkpt lat="44.13787" lon="6.93325">
        <ele>2082</ele>
        <time>2019-07-05T19:38:51+02:00</time>
      </trkpt>
      <trkpt lat="44.1375" lon="6.93361">
        <ele>2095</ele>
        <time>2019-07-05T19:40:20+02:00</time>
      </trkpt>
      <trkpt lat="44.13716" lon="6.93401">
        <ele>2109</ele>
        <time>2019-07-05T19:41:51+02:00</time>
      </trkpt>
      <trkpt lat="44.13685" lon="6.93484">
        <ele>2128</ele>
        <time>2019-07-05T19:44:41+02:00</time>
      </trkpt>
      <trkpt lat="44.13681" lon="6.9357">
        <ele>2149</ele>
        <time>2019-07-05T19:52:40+02:00</time>
      </trkpt>
      <trkpt lat="44.13714" lon="6.93612">
        <ele>2158</ele>
        <time>2019-07-05T19:54:25+02:00</time>
      </trkpt>
      <trkpt lat="44.13746" lon="6.93657">
        <ele>2167</ele>
        <time>2019-07-05T19:56:33+02:00</time>
      </trkpt>
      <trkpt lat="44.13775" lon="6.93706">
        <ele>2175</ele>
        <time>2019-07-05T19:57:45+02:00</time>
      </trkpt>
      <trkpt lat="44.13808" lon="6.9375">
        <ele>2179</ele>
        <time>2019-07-05T20:00:26+02:00</time>
      </trkpt>
      <trkpt lat="44.13831" lon="6.93804">
        <ele>2187</ele>
        <time>2019-07-05T20:01:31+02:00</time>
      </trkpt>
      <trkpt lat="44.13866" lon="6.93884">
        <ele>2195</ele>
        <time>2019-07-05T20:03:27+02:00</time>
      </trkpt>
      <trkpt lat="44.13896" lon="6.93931">
        <ele>2201</ele>
        <time>2019-07-05T20:04:35+02:00</time>
      </trkpt>
      <trkpt lat="44.13928" lon="6.93975">
        <ele>2211</ele>
        <time>2019-07-05T20:05:54+02:00</time>
      </trkpt>
      <trkpt lat="44.13981" lon="6.94037">
        <ele>2232</ele>
        <time>2019-07-05T20:07:40+02:00</time>
      </trkpt>
    </trkseg>
  </trk>
</gpx>